Time;durP1;ratioP1;P1;durP2;ratioP2;P2;SDS_P1;SDS_P2;PMS_P1;PMS_P2;Temp;Humidity;BMP_temperature;BMP_pressure;BME280_temperature;BME280_humidity;BME280_pressure;Samples;Min_cycle;Max_cycle;Signal;HPM_P1;HPM_P2
2021/05/15 00:00:01;;;;;;;1.33;0.70;;;13.90;95.70;;;;;;5052056;28;20581;-67
2021/05/15 00:02:27;;;;;;;0.90;0.70;;;13.90;95.60;;;;;;5052924;28;20229;-67
2021/05/15 00:04:53;;;;;;;1.03;0.70;;;14.00;95.70;;;;;;5052852;28;20216;-67
2021/05/15 00:07:20;;;;;;;1.10;0.60;;;14.00;95.50;;;;;;5052853;28;20260;-66
2021/05/15 00:09:46;;;;;;;0.80;0.63;;;14.10;95.50;;;;;;5052395;28;20735;-66
2021/05/15 00:12:13;;;;;;;1.87;0.50;;;14.20;95.40;;;;;;5052571;28;20295;-66
2021/05/15 00:14:39;;;;;;;1.17;1.03;;;14.20;95.40;;;;;;5052392;28;20212;-68
2021/05/15 00:17:05;;;;;;;3.03;0.83;;;14.20;95.40;;;;;;5052911;28;20209;-68
2021/05/15 00:19:31;;;;;;;2.50;0.97;;;14.20;95.40;;;;;;5052723;28;20216;-67
2021/05/15 00:21:58;;;;;;;2.13;0.83;;;14.30;95.40;;;;;;5054702;28;20294;-66
2021/05/15 00:24:25;;;;;;;0.70;0.60;;;14.30;95.40;;;;;;5053405;28;20208;-67
2021/05/15 00:26:51;;;;;;;0.50;0.50;;;14.20;95.40;;;;;;5052567;28;20664;-68
2021/05/15 00:29:17;;;;;;;0.70;0.60;;;14.30;95.40;;;;;;5052460;28;20283;-68
2021/05/15 00:31:43;;;;;;;2.43;0.90;;;14.30;95.40;;;;;;5052625;28;20662;-67
2021/05/15 00:34:09;;;;;;;0.70;0.60;;;14.30;95.40;;;;;;5052287;28;20209;-67
2021/05/15 00:36:36;;;;;;;1.47;0.57;;;14.30;95.40;;;;;;5052111;28;20209;-66
2021/05/15 00:39:02;;;;;;;0.63;0.63;;;14.30;95.40;;;;;;5052436;28;20228;-69
2021/05/15 00:41:29;;;;;;;1.87;1.03;;;14.20;95.40;;;;;;5053175;28;20225;-69
2021/05/15 00:44:11;;;;;;;1.63;1.00;;;14.20;95.40;;;;;;5054437;28;20209;-68
2021/05/15 00:46:38;;;;;;;2.53;1.10;;;14.20;95.40;;;;;;5054990;28;20581;-68
2021/05/15 00:49:04;;;;;;;1.03;0.77;;;14.10;95.60;;;;;;5052626;28;20700;-68
2021/05/15 00:51:31;;;;;;;1.33;0.80;;;14.00;95.80;;;;;;5052262;28;20229;-68
2021/05/15 00:53:57;;;;;;;0.73;0.50;;;14.00;95.80;;;;;;5051832;28;20225;-68
2021/05/15 00:56:23;;;;;;;1.47;0.80;;;13.80;96.20;;;;;;5052211;28;20205;-68
2021/05/15 00:58:51;;;;;;;1.13;0.90;;;13.90;96.20;;;;;;5051681;28;20681;-68
2021/05/15 01:01:17;;;;;;;1.03;0.73;;;13.80;96.30;;;;;;5051847;28;20630;-68
2021/05/15 01:03:44;;;;;;;1.27;0.80;;;13.80;96.40;;;;;;5051716;28;20211;-68
2021/05/15 01:06:10;;;;;;;2.83;1.00;;;13.70;96.40;;;;;;5051791;28;20209;-68
2021/05/15 01:08:36;;;;;;;1.47;0.70;;;13.70;96.50;;;;;;5051399;28;20774;-68
2021/05/15 01:11:02;;;;;;;1.43;0.90;;;13.60;96.50;;;;;;5051720;28;20576;-68
2021/05/15 01:13:32;;;;;;;1.23;0.70;;;13.70;96.60;;;;;;5052134;28;20209;-68
2021/05/15 01:16:00;;;;;;;1.97;0.47;;;13.70;96.50;;;;;;5052119;28;20237;-68
2021/05/15 01:18:26;;;;;;;1.60;0.60;;;13.70;96.40;;;;;;5052118;28;20233;-68
2021/05/15 01:20:57;;;;;;;1.43;0.73;;;13.60;96.50;;;;;;5052147;28;20205;-68
2021/05/15 01:23:23;;;;;;;35.57;31.60;;;13.60;96.50;;;;;;5051768;28;20228;-68
2021/05/15 01:25:50;;;;;;;3.13;2.83;;;13.50;96.50;;;;;;5053185;28;20209;-67
2021/05/15 01:28:16;;;;;;;2.60;0.97;;;13.40;96.60;;;;;;5052485;28;20623;-68
2021/05/15 01:30:43;;;;;;;2.50;0.73;;;13.30;96.60;;;;;;5052299;28;20206;-68
2021/05/15 01:33:09;;;;;;;2.17;0.70;;;13.20;96.60;;;;;;5051810;28;20225;-68
2021/05/15 01:35:35;;;;;;;2.30;1.03;;;13.10;96.80;;;;;;5051415;28;20209;-68
2021/05/15 01:38:02;;;;;;;1.30;0.80;;;13.00;97.00;;;;;;5051203;28;20212;-68
2021/05/15 01:40:29;;;;;;;4.97;0.80;;;12.90;97.10;;;;;;5051428;28;20210;-68
2021/05/15 01:42:55;;;;;;;1.60;1.00;;;12.70;97.00;;;;;;5051354;28;20244;-68
2021/05/15 01:45:21;;;;;;;0.80;0.50;;;12.60;97.10;;;;;;5051093;28;20229;-68
2021/05/15 01:47:47;;;;;;;0.53;0.40;;;12.60;97.20;;;;;;5051380;28;20214;-68
2021/05/15 01:50:17;;;;;;;1.37;0.57;;;12.50;97.30;;;;;;5051118;28;20229;-68
2021/05/15 01:52:43;;;;;;;0.67;0.53;;;12.30;97.80;;;;;;5051242;28;20248;-68
2021/05/15 01:55:15;;;;;;;0.80;0.57;;;12.30;97.70;;;;;;5051103;28;20206;-68
2021/05/15 01:57:41;;;;;;;0.90;0.60;;;12.30;97.90;;;;;;5051046;28;20292;-68
2021/05/15 02:00:09;;;;;;;0.87;0.60;;;12.20;98.20;;;;;;5050946;28;20693;-68
2021/05/15 02:02:35;;;;;;;2.80;0.80;;;11.90;98.90;;;;;;5051213;28;20229;-68
2021/05/15 02:05:01;;;;;;;3.10;0.90;;;11.90;99.40;;;;;;5051893;28;20213;-69
2021/05/15 02:07:27;;;;;;;1.53;0.60;;;11.60;99.90;;;;;;5052411;28;20201;-68
2021/05/15 02:09:53;;;;;;;1.13;0.80;;;11.60;99.90;;;;;;5051831;28;20681;-68
2021/05/15 02:12:20;;;;;;;1.63;0.80;;;11.80;99.90;;;;;;5051375;28;20236;-67
2021/05/15 02:14:47;;;;;;;0.90;0.70;;;11.70;99.90;;;;;;5052433;28;20202;-67
2021/05/15 02:17:13;;;;;;;1.83;0.60;;;11.80;99.90;;;;;;5051581;28;20210;-67
2021/05/15 02:19:39;;;;;;;1.00;0.70;;;11.90;99.90;;;;;;5051916;28;20228;-67
2021/05/15 02:22:05;;;;;;;0.93;0.70;;;11.90;99.90;;;;;;5054683;28;20225;-67
2021/05/15 02:24:31;;;;;;;0.90;0.60;;;12.20;99.90;;;;;;5054690;28;20213;-67
2021/05/15 02:26:58;;;;;;;1.00;0.60;;;12.30;99.60;;;;;;5054622;28;20232;-67
2021/05/15 02:29:25;;;;;;;0.73;0.70;;;12.40;99.30;;;;;;5054519;28;20221;-67
2021/05/15 02:31:51;;;;;;;0.93;0.60;;;12.40;99.20;;;;;;5054272;28;20253;-67
2021/05/15 02:34:17;;;;;;;2.00;0.70;;;12.40;99.10;;;;;;5054306;28;20259;-67
2021/05/15 02:36:44;;;;;;;1.50;0.63;;;12.20;99.30;;;;;;5054542;28;20274;-67
2021/05/15 02:39:10;;;;;;;1.30;0.73;;;12.20;99.40;;;;;;5054468;28;20205;-67
2021/05/15 02:41:36;;;;;;;1.03;0.60;;;12.10;99.70;;;;;;5054434;28;20256;-67
2021/05/15 02:44:03;;;;;;;1.10;0.70;;;11.90;99.90;;;;;;5054400;28;20205;-67
2021/05/15 02:46:30;;;;;;;0.83;0.63;;;11.90;99.90;;;;;;5054277;28;20673;-67
2021/05/15 02:48:56;;;;;;;2.20;0.77;;;11.90;99.90;;;;;;5054589;28;20863;-67
2021/05/15 02:51:23;;;;;;;0.97;0.77;;;11.80;99.90;;;;;;5054421;28;20244;-67
2021/05/15 02:53:49;;;;;;;0.93;0.83;;;11.80;99.90;;;;;;5054232;28;20202;-67
2021/05/15 02:56:15;;;;;;;2.80;0.80;;;11.70;99.90;;;;;;5054711;28;20210;-67
2021/05/15 02:58:41;;;;;;;2.30;0.80;;;11.60;99.90;;;;;;5053975;28;20202;-68
2021/05/15 03:01:08;;;;;;;1.03;0.67;;;11.60;99.90;;;;;;5054050;28;20208;-68
2021/05/15 03:03:35;;;;;;;0.90;0.73;;;11.60;99.90;;;;;;5054211;28;20256;-68
2021/05/15 03:06:01;;;;;;;0.73;0.70;;;11.50;99.90;;;;;;5054475;28;20385;-68
2021/05/15 03:08:27;;;;;;;1.60;0.80;;;11.50;99.90;;;;;;5054024;28;20209;-68
2021/05/15 03:10:53;;;;;;;1.67;0.80;;;11.50;99.90;;;;;;5054033;28;20601;-68
2021/05/15 03:13:19;;;;;;;0.53;0.53;;;11.40;99.90;;;;;;5054054;28;20230;-69
2021/05/15 03:15:46;;;;;;;2.63;0.83;;;11.40;99.90;;;;;;5054921;28;20205;-68
2021/05/15 03:18:12;;;;;;;1.80;0.80;;;11.40;99.90;;;;;;5055495;28;20210;-67
2021/05/15 03:20:39;;;;;;;2.90;1.03;;;11.40;99.90;;;;;;5054024;28;20198;-67
2021/05/15 03:23:05;;;;;;;1.33;0.70;;;11.30;99.90;;;;;;5054955;28;20229;-68
2021/05/15 03:25:31;;;;;;;0.77;0.77;;;11.40;99.90;;;;;;5053924;28;20205;-67
2021/05/15 03:27:58;;;;;;;0.80;0.50;;;11.30;99.90;;;;;;5053761;28;20208;-68
2021/05/15 03:30:24;;;;;;;1.67;0.77;;;11.30;99.90;;;;;;5053391;28;20229;-67
2021/05/15 03:32:50;;;;;;;2.83;0.83;;;11.30;99.90;;;;;;5079591;22;20225;-66
2021/05/15 03:35:19;;;;;;;1.10;0.60;;;11.20;99.90;;;;;;5075362;28;20757;-66
2021/05/15 03:37:46;;;;;;;2.73;1.10;;;11.10;99.90;;;;;;5074988;28;20223;-66
2021/05/15 03:40:14;;;;;;;2.53;0.80;;;11.10;99.90;;;;;;5074758;28;20212;-66
2021/05/15 03:42:40;;;;;;;2.83;1.07;;;11.00;99.90;;;;;;5074592;28;20221;-66
2021/05/15 03:45:08;;;;;;;1.20;0.90;;;10.90;99.90;;;;;;5073698;28;20208;-66
2021/05/15 03:47:34;;;;;;;1.10;0.70;;;10.90;99.90;;;;;;5074317;28;20239;-66
2021/05/15 03:50:00;;;;;;;1.60;1.10;;;10.90;99.90;;;;;;5073914;28;20225;-66
2021/05/15 03:52:27;;;;;;;2.27;1.00;;;10.90;99.90;;;;;;5073902;28;20244;-66
2021/05/15 03:54:54;;;;;;;0.90;0.80;;;10.90;99.90;;;;;;5073792;28;20204;-66
2021/05/15 03:57:20;;;;;;;1.33;0.90;;;10.90;99.90;;;;;;5074009;28;20733;-67
2021/05/15 03:59:46;;;;;;;2.83;1.20;;;11.00;99.90;;;;;;5074066;28;20208;-66
2021/05/15 04:02:13;;;;;;;1.40;1.00;;;10.80;99.90;;;;;;5073864;28;20231;-66
2021/05/15 04:04:39;;;;;;;2.27;1.10;;;10.80;99.90;;;;;;5073549;28;20205;-66
2021/05/15 04:07:05;;;;;;;3.57;1.10;;;10.60;99.90;;;;;;5074093;28;20205;-66
2021/05/15 04:09:31;;;;;;;2.13;1.10;;;10.80;99.90;;;;;;5073286;28;20228;-66
2021/05/15 04:11:58;;;;;;;2.97;1.40;;;10.90;99.90;;;;;;5072972;28;20274;-66
2021/05/15 04:14:32;;;;;;;2.87;1.20;;;11.10;99.90;;;;;;5073011;28;20205;-66
2021/05/15 04:17:18;;;;;;;1.47;0.93;;;11.10;99.90;;;;;;5073287;28;20262;-67
2021/05/15 04:19:44;;;;;;;4.33;1.40;;;11.30;99.90;;;;;;5073170;28;20219;-66
2021/05/15 04:22:10;;;;;;;1.77;1.03;;;11.40;99.90;;;;;;5073259;28;20391;-66
2021/05/15 04:24:37;;;;;;;5.10;1.43;;;11.50;99.90;;;;;;5073776;28;20205;-65
2021/05/15 04:27:06;;;;;;;2.93;1.00;;;11.60;99.90;;;;;;5074099;28;20209;-66
2021/05/15 04:29:33;;;;;;;1.53;1.17;;;11.70;99.90;;;;;;5073010;28;20233;-66
2021/05/15 04:31:59;;;;;;;2.53;1.63;;;11.70;99.90;;;;;;5074249;28;20240;-66
2021/05/15 04:34:28;;;;;;;1.53;1.07;;;11.80;99.90;;;;;;5075481;28;20209;-66
2021/05/15 04:36:54;;;;;;;2.17;1.20;;;11.90;99.90;;;;;;5075125;28;20296;-66
2021/05/15 04:39:21;;;;;;;1.10;1.00;;;12.00;99.90;;;;;;5074890;28;20208;-66
2021/05/15 04:41:47;;;;;;;4.77;1.87;;;12.20;99.90;;;;;;5074832;28;20220;-66
2021/05/15 04:44:14;;;;;;;1.97;1.20;;;12.30;99.90;;;;;;5072931;28;20777;-66
2021/05/15 04:46:40;;;;;;;1.30;0.80;;;12.40;99.90;;;;;;5073588;28;20207;-66
2021/05/15 04:49:06;;;;;;;1.83;0.87;;;12.50;99.90;;;;;;5073187;28;20221;-66
2021/05/15 04:51:33;;;;;;;1.57;1.00;;;12.30;99.90;;;;;;5073416;28;20231;-65
2021/05/15 04:54:01;;;;;;;1.47;1.10;;;12.20;99.90;;;;;;5072869;28;20241;-66
2021/05/15 04:56:28;;;;;;;1.63;0.77;;;12.10;99.90;;;;;;5073208;28;20204;-66
2021/05/15 04:58:54;;;;;;;1.10;0.83;;;12.20;99.90;;;;;;5072687;28;20204;-66
2021/05/15 05:01:21;;;;;;;1.97;1.20;;;12.30;99.90;;;;;;5073017;28;20209;-66
2021/05/15 05:03:47;;;;;;;1.27;1.00;;;12.30;99.90;;;;;;5072559;28;20219;-66
2021/05/15 05:06:14;;;;;;;1.40;1.00;;;12.70;99.90;;;;;;5072616;28;20626;-66
2021/05/15 05:08:40;;;;;;;4.07;2.87;;;12.90;99.90;;;;;;5072572;28;20233;-66
2021/05/15 05:11:06;;;;;;;2.53;1.57;;;13.20;99.90;;;;;;5072701;28;20208;-66
2021/05/15 05:13:32;;;;;;;6.03;3.17;;;13.30;99.90;;;;;;5072400;28;20225;-66
2021/05/15 05:15:59;;;;;;;1.17;1.00;;;13.40;99.90;;;;;;5072679;28;20587;-66
2021/05/15 05:18:26;;;;;;;4.13;1.30;;;13.50;99.90;;;;;;5072003;28;20216;-66
2021/05/15 05:20:52;;;;;;;1.37;0.80;;;13.60;99.90;;;;;;5072254;28;20676;-66
2021/05/15 05:23:18;;;;;;;2.40;1.73;;;13.80;99.60;;;;;;5072283;28;20224;-67
2021/05/15 05:25:44;;;;;;;2.20;1.10;;;13.90;99.30;;;;;;5072448;28;20205;-67
2021/05/15 05:28:14;;;;;;;1.47;1.10;;;14.30;98.80;;;;;;5072254;28;20209;-67
2021/05/15 05:30:40;;;;;;;0.70;0.60;;;15.50;97.50;;;;;;5072367;28;20232;-67
2021/05/15 05:33:06;;;;;;;1.23;0.80;;;17.10;93.70;;;;;;5072361;28;20734;-67
2021/05/15 05:35:35;;;;;;;2.23;0.73;;;17.80;91.50;;;;;;5072614;28;20204;-67
2021/05/15 05:38:01;;;;;;;1.63;1.03;;;17.90;90.50;;;;;;5073247;28;20205;-67
2021/05/15 05:40:27;;;;;;;1.97;1.63;;;18.00;89.90;;;;;;5073142;28;20205;-67
2021/05/15 05:42:53;;;;;;;4.17;2.53;;;18.20;88.60;;;;;;5073440;28;20285;-67
2021/05/15 05:45:19;;;;;;;2.77;2.20;;;18.30;87.30;;;;;;5072957;28;20209;-67
2021/05/15 05:47:46;;;;;;;2.67;1.50;;;19.10;85.60;;;;;;5072624;28;20228;-67
2021/05/15 05:50:12;;;;;;;2.58;1.10;;;20.10;81.00;;;;;;5073071;28;20229;-68
2021/05/15 05:52:39;;;;;;;0.77;0.55;;;20.70;78.60;;;;;;5072352;28;20231;-67
2021/05/15 05:55:08;;;;;;;1.20;0.75;;;21.50;75.50;;;;;;5072516;28;20621;-67
2021/05/15 05:57:35;;;;;;;2.17;0.77;;;22.90;70.40;;;;;;5071360;28;20401;-67
2021/05/15 06:00:01;;;;;;;2.88;1.90;;;24.00;64.90;;;;;;5072130;28;20201;-67
2021/05/15 06:02:27;;;;;;;1.33;0.70;;;24.40;62.70;;;;;;5072032;28;20712;-67
2021/05/15 06:04:53;;;;;;;3.63;0.80;;;23.70;62.40;;;;;;5071622;28;20209;-67
2021/05/15 06:07:20;;;;;;;1.92;1.02;;;23.00;63.40;;;;;;5071738;28;20208;-67
2021/05/15 06:09:47;;;;;;;3.08;2.13;;;22.90;64.70;;;;;;5071549;28;20316;-67
2021/05/15 06:12:14;;;;;;;1.20;0.90;;;23.30;63.40;;;;;;5071958;28;20235;-67
2021/05/15 06:14:40;;;;;;;0.80;0.40;;;23.50;61.90;;;;;;5071650;28;20308;-68
2021/05/15 06:17:07;;;;;;;4.32;2.38;;;23.30;62.20;;;;;;5071446;28;20209;-67
2021/05/15 06:19:34;;;;;;;2.00;1.63;;;24.20;61.80;;;;;;5071483;28;20209;-67
2021/05/15 06:22:00;;;;;;;1.25;0.82;;;25.60;57.50;;;;;;5071662;28;20268;-67
2021/05/15 06:24:26;;;;;;;2.35;1.52;;;26.90;54.80;;;;;;5072962;28;20677;-67
2021/05/15 06:26:54;;;;;;;2.90;1.30;;;28.20;52.30;;;;;;5073977;28;20278;-68
2021/05/15 06:29:20;;;;;;;1.20;0.68;;;29.70;49.00;;;;;;5074032;28;20240;-68
2021/05/15 06:31:46;;;;;;;3.00;0.90;;;30.60;46.00;;;;;;5073634;28;20368;-68
2021/05/15 06:34:12;;;;;;;0.45;0.40;;;30.90;45.00;;;;;;5074319;28;20231;-68
2021/05/15 06:36:39;;;;;;;0.98;0.63;;;30.40;44.70;;;;;;5074020;28;20216;-68
2021/05/15 06:39:06;;;;;;;3.85;1.85;;;29.90;45.00;;;;;;5073787;28;20197;-68
2021/05/15 06:41:32;;;;;;;0.47;0.35;;;30.10;45.20;;;;;;5073717;28;20243;-68
2021/05/15 06:44:00;;;;;;;2.83;0.70;;;30.90;43.60;;;;;;5073406;28;20201;-67
2021/05/15 06:46:26;;;;;;;1.60;1.15;;;32.00;42.00;;;;;;5073381;28;20204;-68
2021/05/15 06:48:52;;;;;;;3.55;1.50;;;32.60;40.60;;;;;;5073673;28;20212;-68
2021/05/15 06:51:19;;;;;;;1.30;0.98;;;33.40;39.40;;;;;;5074162;28;20200;-67
2021/05/15 06:53:45;;;;;;;1.45;0.70;;;33.90;38.00;;;;;;5073630;28;20231;-69
2021/05/15 06:56:12;;;;;;;0.90;0.43;;;34.30;37.70;;;;;;5073970;28;20561;-68
2021/05/15 06:58:41;;;;;;;1.63;0.63;;;34.80;36.70;;;;;;5073565;28;20686;-68
2021/05/15 07:01:08;;;;;;;0.57;0.45;;;35.20;36.10;;;;;;5073747;28;20235;-69
2021/05/15 07:03:35;;;;;;;3.20;0.52;;;35.80;35.30;;;;;;5073613;28;20237;-69
2021/05/15 07:06:02;;;;;;;2.88;2.03;;;36.00;35.00;;;;;;5074206;28;20282;-69
2021/05/15 07:08:28;;;;;;;0.43;0.43;;;36.40;34.00;;;;;;5075487;28;20209;-69
2021/05/15 07:10:55;;;;;;;0.90;0.63;;;36.50;33.50;;;;;;5077430;28;20229;-68
2021/05/15 07:13:21;;;;;;;1.92;1.10;;;36.60;33.60;;;;;;5075973;28;20229;-69
2021/05/15 07:15:47;;;;;;;1.50;0.60;;;37.00;33.30;;;;;;5075904;28;20208;-69
2021/05/15 07:18:15;;;;;;;6.05;0.60;;;37.40;32.40;;;;;;5075373;28;20201;-69
2021/05/15 07:20:41;;;;;;;1.58;0.47;;;37.70;32.00;;;;;;5075552;28;20687;-69
2021/05/15 07:23:07;;;;;;;0.85;0.65;;;38.10;31.40;;;;;;5075761;28;20233;-69
2021/05/15 07:25:34;;;;;;;1.33;0.60;;;38.00;31.20;;;;;;5075284;28;20209;-69
2021/05/15 07:28:01;;;;;;;1.20;0.47;;;37.60;31.50;;;;;;5075103;28;20208;-69
2021/05/15 07:30:27;;;;;;;0.70;0.50;;;37.40;32.10;;;;;;5074963;28;20224;-70
2021/05/15 07:32:56;;;;;;;3.78;0.82;;;36.90;32.10;;;;;;5075650;28;20241;-69
2021/05/15 07:35:24;;;;;;;2.10;0.63;;;36.70;32.00;;;;;;5075885;28;20205;-69
2021/05/15 07:37:50;;;;;;;0.60;0.60;;;36.40;32.20;;;;;;5076273;28;20215;-69
2021/05/15 07:40:17;;;;;;;1.20;0.65;;;35.80;33.00;;;;;;5075243;28;20292;-69
2021/05/15 07:42:44;;;;;;;1.33;0.65;;;34.90;33.60;;;;;;5074656;28;20605;-66
2021/05/15 07:45:11;;;;;;;1.63;0.60;;;34.70;33.90;;;;;;5074022;28;20212;-65
2021/05/15 07:47:38;;;;;;;1.10;0.80;;;35.00;33.70;;;;;;5073870;28;20724;-65
2021/05/15 07:50:04;;;;;;;2.72;0.70;;;35.00;33.80;;;;;;5073519;28;20766;-64
2021/05/15 07:52:32;;;;;;;0.93;0.40;;;34.00;34.70;;;;;;5073865;28;20225;-65
2021/05/15 07:54:58;;;;;;;0.57;0.55;;;32.60;35.80;;;;;;5073347;28;20205;-65
2021/05/15 07:57:25;;;;;;;4.43;0.65;;;30.90;37.80;;;;;;5073933;28;20599;-65
2021/05/15 07:59:52;;;;;;;3.10;0.80;;;29.50;40.00;;;;;;5074013;28;20204;-64
2021/05/15 08:02:18;;;;;;;2.10;0.50;;;28.00;41.30;;;;;;5074143;28;20305;-65
2021/05/15 08:04:45;;;;;;;0.98;0.47;;;26.80;42.90;;;;;;5073686;28;20209;-65
2021/05/15 08:07:11;;;;;;;1.30;0.85;;;25.90;44.60;;;;;;5073726;28;20209;-65
2021/05/15 08:09:38;;;;;;;0.90;0.30;;;25.40;45.50;;;;;;5073665;28;20227;-65
2021/05/15 08:12:06;;;;;;;1.58;0.77;;;25.20;45.90;;;;;;5074056;28;20236;-66
2021/05/15 08:14:32;;;;;;;4.25;3.72;;;25.50;46.00;;;;;;5073708;28;20220;-65
2021/05/15 08:16:58;;;;;;;0.90;0.73;;;25.80;45.10;;;;;;5073511;28;20209;-64
2021/05/15 08:19:24;;;;;;;1.60;0.50;;;26.00;45.20;;;;;;5072697;28;20205;-64
2021/05/15 08:21:50;;;;;;;1.55;0.50;;;25.90;45.50;;;;;;5073124;28;20612;-65
2021/05/15 08:24:17;;;;;;;1.00;0.57;;;26.10;45.60;;;;;;5073335;28;20212;-66
2021/05/15 08:26:45;;;;;;;1.27;0.65;;;26.80;44.70;;;;;;5073545;28;20209;-66
2021/05/15 08:29:14;;;;;;;1.38;0.60;;;27.10;43.70;;;;;;5073672;28;20216;-64
2021/05/15 08:31:41;;;;;;;2.25;0.70;;;26.90;44.00;;;;;;5073301;28;20668;-65
2021/05/15 08:34:07;;;;;;;2.60;0.77;;;26.60;44.40;;;;;;5073269;28;20208;-65
2021/05/15 08:36:34;;;;;;;3.88;0.70;;;26.20;45.00;;;;;;5073441;28;20293;-65
2021/05/15 08:39:00;;;;;;;2.13;0.85;;;25.70;45.70;;;;;;5073449;28;20201;-66
2021/05/15 08:41:26;;;;;;;3.03;1.50;;;25.40;46.10;;;;;;5073273;28;20295;-65
2021/05/15 08:43:54;;;;;;;2.83;1.10;;;25.00;46.60;;;;;;5073449;28;20245;-66
2021/05/15 08:46:23;;;;;;;3.22;2.03;;;24.80;47.30;;;;;;5073541;28;20208;-66
2021/05/15 08:48:50;;;;;;;3.08;1.23;;;24.70;47.90;;;;;;5073336;28;20211;-64
2021/05/15 08:51:16;;;;;;;2.08;0.70;;;24.40;47.80;;;;;;5073331;28;20216;-65
2021/05/15 08:53:43;;;;;;;0.65;0.47;;;24.30;47.90;;;;;;5073007;28;20229;-65
2021/05/15 08:56:10;;;;;;;2.25;0.50;;;24.30;47.90;;;;;;5073304;28;20252;-64
2021/05/15 08:58:37;;;;;;;0.77;0.43;;;24.30;47.70;;;;;;5073341;28;20211;-64
2021/05/15 09:01:05;;;;;;;2.47;0.70;;;24.20;48.00;;;;;;5073059;28;20582;-66
2021/05/15 09:03:32;;;;;;;2.60;0.65;;;23.90;48.80;;;;;;5073275;28;20221;-66
2021/05/15 09:05:58;;;;;;;3.13;0.88;;;23.90;48.50;;;;;;5072643;28;20205;-65
2021/05/15 09:08:24;;;;;;;2.13;0.40;;;23.90;48.60;;;;;;5072546;28;20267;-63
2021/05/15 09:10:51;;;;;;;2.60;0.63;;;23.80;49.00;;;;;;5072359;28;20227;-65
2021/05/15 09:13:20;;;;;;;3.53;0.73;;;23.90;48.60;;;;;;5071726;28;20878;-64
2021/05/15 09:15:48;;;;;;;2.92;0.68;;;24.30;48.20;;;;;;5072356;28;20212;-63
2021/05/15 09:18:17;;;;;;;1.13;0.40;;;24.70;47.60;;;;;;5071855;28;20205;-64
2021/05/15 09:20:44;;;;;;;5.53;0.70;;;24.80;47.30;;;;;;5071898;28;20201;-64
2021/05/15 09:23:16;;;;;;;1.60;0.63;;;24.70;46.90;;;;;;5061458;28;20225;-65
2021/05/15 09:25:43;;;;;;;1.45;0.57;;;24.20;47.50;;;;;;5071343;28;20619;-64
2021/05/15 09:28:10;;;;;;;1.20;0.40;;;24.00;47.80;;;;;;5071369;28;20209;-64
2021/05/15 09:30:36;;;;;;;1.92;0.68;;;24.00;48.20;;;;;;5071911;28;20445;-64
2021/05/15 09:33:13;;;;;;;1.25;0.57;;;23.80;48.20;;;;;;5074232;22;20584;-58
2021/05/15 09:35:40;;;;;;;2.38;1.52;;;23.50;48.50;;;;;;5051346;28;20632;-59
2021/05/15 09:38:07;;;;;;;1.05;0.63;;;23.70;48.70;;;;;;5050959;28;20696;-61
2021/05/15 09:40:33;;;;;;;1.65;0.65;;;24.00;48.40;;;;;;5050761;28;20205;-58
2021/05/15 09:43:02;;;;;;;0.90;0.55;;;24.20;48.50;;;;;;5051057;28;20233;-60
2021/05/15 09:45:30;;;;;;;1.17;0.70;;;24.20;47.40;;;;;;5050665;28;20202;-60
2021/05/15 09:47:57;;;;;;;2.33;0.50;;;24.30;47.50;;;;;;5051081;28;20205;-60
2021/05/15 09:50:26;;;;;;;0.70;0.40;;;24.30;47.40;;;;;;5050892;28;20225;-60
2021/05/15 09:53:04;;;;;;;1.25;0.50;;;24.40;47.30;;;;;;5050670;28;20628;-60
2021/05/15 09:55:30;;;;;;;0.35;0.20;;;24.70;47.10;;;;;;5050567;28;20279;-60
2021/05/15 09:57:57;;;;;;;0.70;0.38;;;24.90;46.50;;;;;;5050966;28;20255;-60
2021/05/15 10:00:23;;;;;;;1.10;0.40;;;25.20;46.70;;;;;;5050793;28;20712;-59
2021/05/15 10:02:54;;;;;;;0.85;0.50;;;25.20;46.70;;;;;;5050732;28;20229;-59
2021/05/15 10:05:21;;;;;;;0.50;0.40;;;24.90;46.50;;;;;;5051145;28;20622;-61
2021/05/15 10:07:47;;;;;;;1.40;0.50;;;24.40;47.40;;;;;;5050716;28;20206;-61
2021/05/15 10:10:15;;;;;;;2.40;0.70;;;23.70;48.30;;;;;;5050710;28;20570;-62
2021/05/15 10:12:42;;;;;;;4.40;0.60;;;23.40;48.80;;;;;;5050622;28;20225;-62
2021/05/15 10:15:09;;;;;;;0.70;0.60;;;23.10;49.70;;;;;;5050850;28;20205;-61
2021/05/15 10:17:35;;;;;;;1.58;0.63;;;22.90;50.10;;;;;;5051168;28;20541;-60
2021/05/15 10:20:05;;;;;;;0.40;0.40;;;22.70;49.80;;;;;;5050820;28;20210;-60
2021/05/15 10:22:37;;;;;;;1.83;0.60;;;22.60;49.70;;;;;;5049964;28;20233;-60
2021/05/15 10:25:09;;;;;;;0.75;0.40;;;22.90;50.30;;;;;;5050526;28;20240;-60
2021/05/15 10:27:36;;;;;;;2.22;0.30;;;23.10;49.40;;;;;;5050844;28;20205;-60
2021/05/15 10:30:12;;;;;;;3.60;0.60;;;23.30;48.30;;;;;;5050340;28;20649;-60
2021/05/15 10:32:52;;;;;;;2.65;1.20;;;23.60;48.80;;;;;;5050979;28;20233;-60
2021/05/15 10:35:27;;;;;;;3.72;1.02;;;23.60;49.20;;;;;;5050535;28;20220;-60
2021/05/15 10:38:02;;;;;;;5.88;2.35;;;23.60;49.60;;;;;;5050783;28;20243;-62
2021/05/15 10:40:30;;;;;;;6.50;2.50;;;23.50;49.30;;;;;;5050496;28;20202;-61
2021/05/15 10:43:01;;;;;;;1.90;0.82;;;23.40;49.40;;;;;;5052210;28;20225;-60
2021/05/15 10:45:34;;;;;;;2.90;1.85;;;23.20;50.10;;;;;;5054536;28;20202;-61
2021/05/15 10:48:12;;;;;;;1.85;0.82;;;23.00;51.00;;;;;;5054769;28;20213;-62
2021/05/15 10:50:48;;;;;;;1.90;0.93;;;22.70;53.10;;;;;;5054634;28;20593;-60
2021/05/15 10:53:19;;;;;;;3.47;0.80;;;22.50;56.60;;;;;;5054409;28;20271;-61
2021/05/15 10:56:04;;;;;;;1.48;0.60;;;22.20;56.00;;;;;;5054154;28;20216;-61
2021/05/15 10:59:00;;;;;;;2.22;0.90;;;22.10;56.20;;;;;;5054309;28;20229;-62
2021/05/15 11:01:27;;;;;;;1.15;0.70;;;22.30;55.80;;;;;;5045446;28;20689;-60
2021/05/15 11:03:54;;;;;;;1.80;0.77;;;22.50;54.50;;;;;;5053790;28;20248;-62
2021/05/15 11:06:21;;;;;;;3.13;0.88;;;22.80;53.00;;;;;;5053947;28;20212;-61
2021/05/15 11:08:58;;;;;;;2.22;0.80;;;23.10;52.80;;;;;;5053644;28;20216;-61
2021/05/15 11:11:36;;;;;;;3.10;2.05;;;23.30;50.50;;;;;;5053740;28;20592;-61
2021/05/15 11:14:04;;;;;;;0.70;0.63;;;23.80;49.90;;;;;;5053770;28;20216;-62
2021/05/15 11:16:31;;;;;;;1.00;0.60;;;24.00;49.10;;;;;;5053900;28;20236;-60
2021/05/15 11:19:08;;;;;;;1.95;0.98;;;24.10;48.30;;;;;;5054091;28;20213;-61
2021/05/15 11:21:36;;;;;;;3.38;1.10;;;23.90;49.30;;;;;;5053748;28;20233;-60
2021/05/15 11:24:03;;;;;;;1.10;0.70;;;23.60;49.70;;;;;;5053663;28;20213;-61
2021/05/15 11:26:37;;;;;;;2.97;1.33;;;23.60;48.80;;;;;;5053366;28;20213;-61
2021/05/15 11:29:06;;;;;;;2.45;0.90;;;23.60;49.50;;;;;;5053528;28;20232;-61
2021/05/15 11:31:38;;;;;;;1.95;0.95;;;23.60;48.60;;;;;;5053428;28;20684;-61
2021/05/15 11:34:12;;;;;;;3.05;2.50;;;23.70;48.30;;;;;;5053224;28;20613;-61
2021/05/15 11:36:42;;;;;;;1.83;0.82;;;23.50;52.40;;;;;;5053754;28;20213;-61
2021/05/15 11:39:11;;;;;;;3.47;1.10;;;23.20;57.00;;;;;;5053792;28;20205;-63
2021/05/15 11:41:37;;;;;;;1.50;0.77;;;22.80;59.20;;;;;;5053429;28;20210;-60
2021/05/15 11:44:06;;;;;;;2.35;0.93;;;22.60;58.90;;;;;;5053047;28;20688;-63
2021/05/15 11:46:32;;;;;;;1.00;0.52;;;22.50;59.80;;;;;;5053457;28;20213;-61
2021/05/15 11:48:58;;;;;;;4.18;1.10;;;22.50;58.40;;;;;;5053939;28;20206;-61
2021/05/15 11:51:26;;;;;;;1.80;0.70;;;22.70;58.80;;;;;;5053362;28;20221;-60
2021/05/15 11:53:54;;;;;;;2.13;0.98;;;23.00;56.40;;;;;;5052370;28;20265;-62
2021/05/15 11:56:22;;;;;;;1.65;0.93;;;23.10;54.40;;;;;;5053192;28;20201;-60
2021/05/15 11:58:50;;;;;;;2.25;0.98;;;23.20;53.40;;;;;;5053268;28;20221;-61
2021/05/15 12:01:18;;;;;;;3.65;0.90;;;23.30;54.20;;;;;;5053425;28;20232;-61
2021/05/15 12:03:44;;;;;;;2.30;0.75;;;23.50;53.40;;;;;;5053081;28;20229;-60
2021/05/15 12:06:15;;;;;;;3.67;1.00;;;23.40;48.30;;;;;;5053170;28;20264;-61
2021/05/15 12:08:41;;;;;;;2.15;0.70;;;23.20;48.00;;;;;;5053238;28;20240;-60
2021/05/15 12:11:09;;;;;;;0.98;0.65;;;23.20;47.80;;;;;;5052898;28;20217;-61
2021/05/15 12:13:35;;;;;;;3.40;1.00;;;23.50;47.70;;;;;;5052900;28;20225;-61
2021/05/15 12:16:04;;;;;;;1.70;0.80;;;23.70;46.50;;;;;;5053247;28;20205;-61
2021/05/15 12:18:31;;;;;;;3.42;0.80;;;23.90;45.80;;;;;;5053149;28;20300;-61
2021/05/15 12:20:57;;;;;;;1.13;0.60;;;23.90;45.30;;;;;;5053091;28;20212;-61
2021/05/15 12:23:24;;;;;;;1.48;0.70;;;23.90;44.30;;;;;;5052973;28;20236;-60
2021/05/15 12:26:01;;;;;;;1.90;0.73;;;23.90;45.70;;;;;;5052792;28;20575;-60
2021/05/15 12:28:29;;;;;;;2.90;1.13;;;23.90;45.70;;;;;;5053162;28;20209;-61
2021/05/15 12:30:58;;;;;;;3.30;1.10;;;24.00;46.60;;;;;;5053058;28;20245;-61
2021/05/15 12:33:26;;;;;;;3.22;0.90;;;24.20;46.30;;;;;;5052342;28;20240;-61
2021/05/15 12:36:04;;;;;;;2.95;1.48;;;24.40;45.00;;;;;;5052622;28;20213;-60
2021/05/15 12:38:32;;;;;;;2.92;1.05;;;24.50;44.60;;;;;;5052484;28;20206;-60
2021/05/15 12:41:09;;;;;;;1.85;0.70;;;24.60;44.00;;;;;;5053155;28;20585;-60
2021/05/15 12:43:38;;;;;;;3.30;1.40;;;24.90;44.00;;;;;;5052628;28;20239;-61
2021/05/15 12:46:15;;;;;;;2.95;0.75;;;25.30;43.50;;;;;;5052732;28;20238;-60
2021/05/15 12:48:43;;;;;;;2.88;0.82;;;25.50;43.50;;;;;;5052573;28;20669;-60